Time;durP1;ratioP1;P1;durP2;ratioP2;P2;SDS_P1;SDS_P2;PMS_P1;PMS_P2;Temp;Humidity;BMP_temperature;BMP_pressure;BME280_temperature;BME280_humidity;BME280_pressure;Samples;Min_cycle;Max_cycle;Signal;HPM_P1;HPM_P2
2023/05/27 00:00:08;;;;;;;14.32;10.10;;;20.00;72.50;;;;;;4963099;28;20031;-81
2023/05/27 00:02:34;;;;;;;11.70;10.00;;;20.00;72.70;;;;;;4962382;28;20051;-80
2023/05/27 00:05:00;;;;;;;11.40;9.93;;;20.00;72.40;;;;;;4960554;28;20035;-80
2023/05/27 00:07:27;;;;;;;12.63;10.07;;;19.90;72.50;;;;;;4962064;28;20178;-80
2023/05/27 00:09:54;;;;;;;13.88;10.10;;;19.90;72.70;;;;;;4963241;28;20039;-80
2023/05/27 00:12:20;;;;;;;20.02;9.65;;;19.80;73.00;;;;;;4959498;28;20026;-79
2023/05/27 00:14:46;;;;;;;14.30;10.80;;;19.60;73.60;;;;;;4963462;28;20041;-81
2023/05/27 00:17:15;;;;;;;16.25;10.05;;;19.60;73.80;;;;;;4966482;28;20364;-81
2023/05/27 00:19:42;;;;;;;11.45;9.63;;;19.50;74.10;;;;;;4965533;28;20041;-81
2023/05/27 00:22:08;;;;;;;13.27;10.30;;;19.50;74.30;;;;;;4964817;28;20027;-80
2023/05/27 00:24:39;;;;;;;12.40;10.18;;;19.40;74.40;;;;;;4980630;28;20533;-80
2023/05/27 00:27:10;;;;;;;14.02;10.05;;;19.40;74.60;;;;;;4968482;28;20774;-80
2023/05/27 00:29:36;;;;;;;15.65;10.55;;;19.30;74.90;;;;;;4949718;28;20499;-78
2023/05/27 00:32:03;;;;;;;11.18;9.68;;;19.30;75.30;;;;;;4968221;28;20058;-78
2023/05/27 00:34:33;;;;;;;12.80;10.18;;;19.30;75.20;;;;;;4965309;28;20032;-78
2023/05/27 00:36:59;;;;;;;11.90;9.35;;;19.30;75.40;;;;;;4968584;28;20039;-78
2023/05/27 00:39:26;;;;;;;13.60;9.95;;;19.30;75.40;;;;;;4964498;28;20520;-77
2023/05/27 00:41:52;;;;;;;14.63;9.73;;;19.30;75.60;;;;;;4968384;28;20094;-77
2023/05/27 00:44:18;;;;;;;11.15;9.18;;;19.30;75.80;;;;;;4965894;28;20451;-77
2023/05/27 00:46:47;;;;;;;10.70;9.27;;;19.30;75.80;;;;;;4961761;28;20426;-77
2023/05/27 00:49:13;;;;;;;13.88;9.82;;;19.30;75.80;;;;;;4963907;28;20047;-77
2023/05/27 00:51:39;;;;;;;16.45;10.35;;;19.30;75.90;;;;;;4960785;28;20026;-77
2023/05/27 00:54:07;;;;;;;13.15;9.63;;;19.20;76.10;;;;;;4965268;28;20498;-79
2023/05/27 00:56:33;;;;;;;14.18;10.45;;;19.20;76.90;;;;;;4948313;28;20043;-77
2023/05/27 00:58:59;;;;;;;11.10;9.77;;;19.20;76.70;;;;;;4961319;28;20073;-78
2023/05/27 01:01:25;;;;;;;15.13;9.35;;;19.10;77.00;;;;;;4961712;28;20035;-78
2023/05/27 01:03:53;;;;;;;13.88;10.13;;;19.10;76.80;;;;;;4965030;28;20035;-78
2023/05/27 01:06:44;;;;;;;16.52;10.35;;;19.10;76.90;;;;;;4961915;28;20030;-78
2023/05/27 01:09:39;;;;;;;11.23;9.63;;;19.10;77.10;;;;;;4965488;28;20506;-77
2023/05/27 01:12:31;;;;;;;14.55;9.07;;;19.20;76.60;;;;;;4968038;28;20114;-77
2023/05/27 01:14:58;;;;;;;12.77;8.70;;;19.20;77.10;;;;;;4903011;29;20041;-78
2023/05/27 01:17:26;;;;;;;14.52;9.65;;;19.10;77.80;;;;;;4903542;29;20037;-79
2023/05/27 01:19:54;;;;;;;15.85;9.32;;;19.00;78.10;;;;;;4878422;29;20527;-78
2023/05/27 01:22:22;;;;;;;10.85;9.20;;;19.00;78.70;;;;;;4903779;29;20160;-78
2023/05/27 01:24:50;;;;;;;11.00;9.20;;;18.90;78.80;;;;;;4890835;29;20044;-78
2023/05/27 01:27:15;;;;;;;13.15;9.82;;;18.90;79.00;;;;;;4903045;29;20523;-79
2023/05/27 01:29:43;;;;;;;13.23;9.75;;;19.00;79.00;;;;;;4889755;29;20614;-80
2023/05/27 01:32:32;;;;;;;10.77;8.85;;;18.90;79.40;;;;;;4903950;29;20084;-80
2023/05/27 01:35:22;;;;;;;12.57;9.13;;;19.00;79.80;;;;;;4891152;29;20391;-80
2023/05/27 01:37:51;;;;;;;10.30;8.82;;;19.00;79.60;;;;;;4893163;29;20043;-80
2023/05/27 01:40:18;;;;;;;11.68;9.40;;;19.00;79.60;;;;;;4903659;29;20035;-80
2023/05/27 01:42:46;;;;;;;11.02;9.38;;;19.00;79.80;;;;;;4881578;29;20029;-80
2023/05/27 01:45:12;;;;;;;10.80;9.70;;;19.00;79.80;;;;;;4890527;29;20571;-81
2023/05/27 01:47:40;;;;;;;10.32;8.63;;;19.00;80.30;;;;;;4881547;29;20500;-80
2023/05/27 01:50:06;;;;;;;15.48;9.00;;;19.00;80.00;;;;;;4881239;29;20072;-79
2023/05/27 01:52:33;;;;;;;10.55;9.05;;;18.90;80.00;;;;;;4931703;28;20032;-80
2023/05/27 01:55:00;;;;;;;10.43;9.27;;;18.90;80.40;;;;;;4962403;28;20033;-81
2023/05/27 01:57:26;;;;;;;12.90;9.57;;;19.00;80.20;;;;;;4956654;28;20027;-79
2023/05/27 01:59:52;;;;;;;11.02;8.88;;;19.00;80.30;;;;;;4967061;28;20078;-79
2023/05/27 02:02:18;;;;;;;10.90;9.15;;;19.10;80.40;;;;;;4959584;28;20035;-80
2023/05/27 02:04:44;;;;;;;13.10;9.40;;;19.10;80.50;;;;;;4963521;28;20502;-77
2023/05/27 02:07:10;;;;;;;11.07;9.02;;;19.00;80.60;;;;;;4962559;28;20038;-77
2023/05/27 02:09:36;;;;;;;11.40;9.32;;;19.00;81.00;;;;;;4962001;28;20042;-78
2023/05/27 02:12:06;;;;;;;9.18;8.27;;;19.00;81.00;;;;;;4964010;28;20097;-79
2023/05/27 02:14:32;;;;;;;8.90;8.10;;;19.10;81.00;;;;;;4965568;28;20043;-80
2023/05/27 02:16:58;;;;;;;10.38;8.35;;;19.10;80.80;;;;;;4961519;28;20047;-81
2023/05/27 02:19:25;;;;;;;13.35;8.55;;;19.20;80.40;;;;;;4972024;28;20038;-79
2023/05/27 02:21:51;;;;;;;9.77;8.55;;;19.20;80.30;;;;;;4963358;28;20520;-78
2023/05/27 02:24:17;;;;;;;8.55;7.75;;;19.30;80.10;;;;;;4962946;28;20042;-79
2023/05/27 02:26:43;;;;;;;9.00;8.00;;;19.30;79.80;;;;;;4963057;28;20023;-79
2023/05/27 02:29:09;;;;;;;10.32;7.75;;;19.30;79.50;;;;;;4955438;28;20592;-80
2023/05/27 02:31:35;;;;;;;8.50;7.72;;;19.30;79.50;;;;;;4954510;28;20109;-79
2023/05/27 02:34:01;;;;;;;9.65;8.15;;;19.30;79.60;;;;;;4965469;28;20443;-79
2023/05/27 02:36:28;;;;;;;11.13;8.23;;;19.30;79.40;;;;;;4964913;28;20035;-78
2023/05/27 02:38:55;;;;;;;10.43;7.90;;;19.40;79.10;;;;;;4976173;28;20042;-78
2023/05/27 02:41:21;;;;;;;8.48;7.68;;;19.30;79.20;;;;;;4964470;28;20038;-78
2023/05/27 02:43:47;;;;;;;8.82;7.93;;;19.40;79.40;;;;;;4952091;28;20039;-78
2023/05/27 02:46:16;;;;;;;8.85;7.72;;;19.60;78.90;;;;;;4960815;28;20042;-81
2023/05/27 02:48:42;;;;;;;9.60;7.78;;;19.70;78.60;;;;;;4974284;28;20142;-78
2023/05/27 02:51:08;;;;;;;10.10;8.00;;;19.70;78.30;;;;;;4961801;28;20038;-79
2023/05/27 02:53:34;;;;;;;8.95;7.90;;;19.70;78.30;;;;;;4959705;28;20047;-80
2023/05/27 02:56:00;;;;;;;12.48;8.38;;;19.80;78.30;;;;;;4934649;28;20442;-79
2023/05/27 02:58:26;;;;;;;9.32;7.55;;;19.70;78.20;;;;;;4948395;28;20418;-80
2023/05/27 03:00:52;;;;;;;10.18;8.80;;;19.70;78.10;;;;;;4961410;28;20039;-80
2023/05/27 03:03:18;;;;;;;10.90;8.63;;;19.70;77.50;;;;;;4970863;28;20035;-80
2023/05/27 03:05:45;;;;;;;11.30;7.47;;;19.70;78.20;;;;;;4961620;28;20683;-80
2023/05/27 03:08:11;;;;;;;8.02;7.22;;;19.80;76.50;;;;;;4949534;28;20039;-80
2023/05/27 03:10:37;;;;;;;10.65;7.43;;;19.80;76.20;;;;;;4961354;28;20146;-79
2023/05/27 03:13:03;;;;;;;8.75;7.50;;;19.80;75.40;;;;;;4961388;28;20565;-81
2023/05/27 03:15:29;;;;;;;8.15;7.03;;;19.90;74.80;;;;;;4973545;28;20039;-81
2023/05/27 03:17:56;;;;;;;9.57;6.97;;;19.90;74.00;;;;;;4964967;28;20073;-81
2023/05/27 03:20:22;;;;;;;6.97;6.28;;;19.90;74.00;;;;;;4966642;28;20165;-78
2023/05/27 03:22:50;;;;;;;7.22;6.60;;;19.90;74.00;;;;;;4950369;28;20621;-81
2023/05/27 03:25:16;;;;;;;7.50;6.70;;;19.90;72.70;;;;;;4964767;28;20035;-80
2023/05/27 03:27:43;;;;;;;9.95;6.78;;;19.90;72.90;;;;;;4961617;28;20054;-79
2023/05/27 03:30:13;;;;;;;6.45;5.85;;;20.00;72.40;;;;;;4949482;28;20050;-80
2023/05/27 03:32:44;;;;;;;12.55;6.40;;;20.20;72.30;;;;;;4970227;28;20037;-79
2023/05/27 03:35:10;;;;;;;5.80;5.30;;;20.40;71.20;;;;;;4961532;28;20039;-78
2023/05/27 03:37:36;;;;;;;6.80;6.10;;;20.60;70.40;;;;;;4962047;28;20378;-78
2023/05/27 03:40:06;;;;;;;6.47;5.88;;;20.80;69.10;;;;;;4964379;28;20434;-78
2023/05/27 03:42:33;;;;;;;6.72;5.50;;;20.80;68.80;;;;;;4954374;28;20039;-78
2023/05/27 03:44:59;;;;;;;9.57;5.70;;;21.00;68.30;;;;;;4958917;28;20033;-79
2023/05/27 03:47:27;;;;;;;6.45;5.82;;;21.10;67.30;;;;;;4961387;28;20027;-79
2023/05/27 03:49:53;;;;;;;8.38;5.50;;;21.20;66.30;;;;;;4965823;28;20049;-79
2023/05/27 03:52:19;;;;;;;7.35;5.20;;;21.40;66.00;;;;;;4974562;28;20035;-80
2023/05/27 03:54:45;;;;;;;6.00;5.40;;;21.40;65.60;;;;;;4937567;28;20031;-79
2023/05/27 03:57:13;;;;;;;7.50;5.85;;;21.60;65.80;;;;;;4967373;28;20031;-79
2023/05/27 03:59:38;;;;;;;5.93;5.32;;;21.80;65.70;;;;;;4974598;28;20049;-78
2023/05/27 04:02:05;;;;;;;8.50;5.50;;;21.90;64.60;;;;;;4966366;28;20569;-78
2023/05/27 04:04:31;;;;;;;6.53;5.40;;;22.00;63.70;;;;;;4958152;28;20126;-79
2023/05/27 04:06:57;;;;;;;6.70;5.18;;;22.00;63.30;;;;;;4961761;28;20035;-79
2023/05/27 04:09:22;;;;;;;5.72;5.20;;;22.20;63.60;;;;;;4952250;28;20690;-77
2023/05/27 04:11:48;;;;;;;6.40;5.55;;;22.40;63.50;;;;;;4966800;28;20035;-79
2023/05/27 04:14:14;;;;;;;6.30;4.57;;;22.50;62.30;;;;;;4963541;28;20042;-78
2023/05/27 04:16:41;;;;;;;5.55;5.00;;;22.70;62.30;;;;;;4965105;28;20038;-78
2023/05/27 04:19:07;;;;;;;5.22;4.75;;;22.80;61.40;;;;;;4963105;28;20049;-80
2023/05/27 04:21:35;;;;;;;4.75;4.32;;;22.90;60.60;;;;;;4967943;28;20047;-80
2023/05/27 04:24:03;;;;;;;7.03;4.55;;;22.70;60.00;;;;;;4968797;28;20023;-80
2023/05/27 04:26:30;;;;;;;5.47;4.90;;;22.80;60.00;;;;;;4952161;28;20506;-79
2023/05/27 04:28:59;;;;;;;6.38;5.38;;;23.00;60.20;;;;;;4967496;28;20035;-78
2023/05/27 04:31:28;;;;;;;6.95;4.75;;;23.10;59.50;;;;;;4952498;28;20043;-78
2023/05/27 04:34:03;;;;;;;4.93;4.13;;;23.30;58.70;;;;;;4961345;28;20174;-78
2023/05/27 04:36:32;;;;;;;6.68;4.32;;;23.50;58.90;;;;;;4969150;28;20047;-78
2023/05/27 04:39:11;;;;;;;4.72;4.28;;;23.70;58.40;;;;;;4947617;28;20395;-77
2023/05/27 04:41:41;;;;;;;4.93;3.88;;;23.90;57.80;;;;;;4966069;28;20035;-80
2023/05/27 04:44:28;;;;;;;4.75;4.35;;;24.00;57.60;;;;;;4956465;28;20035;-79
2023/05/27 04:46:56;;;;;;;4.68;4.15;;;24.20;56.90;;;;;;4950927;28;20050;-79
2023/05/27 04:49:22;;;;;;;3.72;3.42;;;24.30;55.50;;;;;;4969107;28;20047;-81
2023/05/27 04:51:48;;;;;;;4.18;3.78;;;24.40;55.30;;;;;;4942642;28;20078;-78
2023/05/27 04:54:18;;;;;;;8.65;3.90;;;24.50;54.70;;;;;;4965430;28;20712;-79
2023/05/27 04:56:44;;;;;;;5.35;3.63;;;24.70;54.50;;;;;;4967752;28;20114;-79
2023/05/27 04:59:21;;;;;;;3.97;3.65;;;24.80;54.40;;;;;;4957070;28;20050;-78
2023/05/27 05:04:55;;;;;;;5.25;3.90;;;25.20;54.20;;;;;;4951103;28;20537;-79
2023/05/27 05:07:22;;;;;;;5.95;3.53;;;25.30;52.10;;;;;;4952880;28;20051;-79
2023/05/27 05:09:50;;;;;;;3.88;3.42;;;25.50;52.10;;;;;;4956520;28;20050;-78
2023/05/27 05:12:25;;;;;;;6.07;3.17;;;25.60;52.00;;;;;;4962693;28;20042;-78
2023/05/27 05:14:52;;;;;;;5.78;3.65;;;25.60;50.60;;;;;;4957415;28;20040;-78
2023/05/27 05:17:19;;;;;;;4.13;3.63;;;25.80;51.80;;;;;;4964044;28;20074;-79
2023/05/27 05:19:45;;;;;;;4.00;3.13;;;25.90;50.40;;;;;;4963747;28;20035;-79
2023/05/27 05:22:18;;;;;;;4.93;3.40;;;26.00;49.20;;;;;;4965870;28;20031;-79
2023/05/27 05:24:46;;;;;;;3.63;3.13;;;26.10;50.80;;;;;;4954334;28;20158;-80
2023/05/27 05:27:13;;;;;;;4.45;3.20;;;26.20;49.10;;;;;;4962980;28;20036;-80
2023/05/27 05:29:39;;;;;;;4.10;3.58;;;26.30;49.30;;;;;;4965975;28;20080;-78
2023/05/27 05:32:06;;;;;;;6.10;3.17;;;26.30;49.10;;;;;;4972695;28;20042;-79
2023/05/27 05:34:32;;;;;;;3.83;2.72;;;26.30;48.60;;;;;;4962526;28;20388;-79
2023/05/27 05:36:58;;;;;;;3.75;3.30;;;26.40;47.90;;;;;;4965078;28;20043;-79
2023/05/27 05:39:24;;;;;;;3.28;2.80;;;26.50;48.20;;;;;;4959406;28;20037;-79
2023/05/27 05:41:53;;;;;;;4.93;3.03;;;26.80;47.40;;;;;;4960648;28;20478;-79
2023/05/27 05:44:19;;;;;;;6.28;3.00;;;27.00;46.90;;;;;;4949416;28;20054;-78
2023/05/27 05:46:46;;;;;;;3.30;3.00;;;27.10;46.50;;;;;;4955894;28;20545;-80
2023/05/27 05:49:12;;;;;;;5.15;3.10;;;27.20;45.80;;;;;;4963345;28;20532;-79
2023/05/27 05:51:42;;;;;;;4.95;2.58;;;27.30;44.60;;;;;;4961783;28;20065;-79
2023/05/27 05:54:08;;;;;;;6.72;3.10;;;27.40;45.50;;;;;;4955831;28;20062;-80
2023/05/27 05:56:41;;;;;;;3.95;2.67;;;27.60;45.20;;;;;;4964849;28;20078;-81
2023/05/27 05:59:07;;;;;;;7.10;2.67;;;27.80;45.30;;;;;;4961995;28;20034;-80
2023/05/27 06:01:33;;;;;;;3.60;2.70;;;27.90;45.10;;;;;;4955873;28;20039;-80
2023/05/27 06:04:04;;;;;;;4.30;2.67;;;27.80;45.10;;;;;;4972018;28;20028;-82
2023/05/27 06:06:34;;;;;;;2.80;2.40;;;27.70;44.50;;;;;;4967437;28;20149;-83
2023/05/27 06:09:27;;;;;;;8.45;2.72;;;27.70;44.00;;;;;;4902893;29;21193;-82
2023/05/27 06:11:56;;;;;;;4.45;2.47;;;27.60;43.40;;;;;;4905386;29;20040;-80
2023/05/27 06:14:23;;;;;;;4.70;2.38;;;27.70;43.90;;;;;;4891692;29;20040;-83
2023/05/27 06:16:51;;;;;;;7.82;2.65;;;27.70;42.50;;;;;;4877435;29;20040;-80
2023/05/27 06:19:17;;;;;;;4.18;2.45;;;27.80;42.60;;;;;;4903949;29;20036;-82
2023/05/27 06:21:43;;;;;;;4.25;2.55;;;27.70;42.60;;;;;;4891946;29;20036;-80
2023/05/27 06:24:27;;;;;;;6.03;2.30;;;27.70;42.10;;;;;;4904082;29;20033;-79
2023/05/27 06:27:04;;;;;;;6.07;2.80;;;27.70;42.20;;;;;;4905293;29;20060;-80
2023/05/27 06:29:30;;;;;;;4.90;2.30;;;27.70;42.20;;;;;;4894121;29;20050;-81
2023/05/27 06:31:56;;;;;;;4.68;2.47;;;27.60;41.70;;;;;;4894829;29;20531;-79
2023/05/27 06:34:23;;;;;;;4.20;2.45;;;27.60;42.40;;;;;;4907404;29;20044;-75
2023/05/27 06:36:49;;;;;;;4.18;2.47;;;27.70;43.90;;;;;;4894051;29;20033;-74
2023/05/27 06:39:16;;;;;;;2.78;2.40;;;27.60;48.80;;;;;;4896744;29;20183;-73
2023/05/27 06:41:42;;;;;;;5.68;2.33;;;27.60;45.90;;;;;;4910631;29;20028;-74
2023/05/27 06:44:43;;;;;;;4.32;2.30;;;27.60;45.60;;;;;;4902922;29;20036;-75
2023/05/27 06:47:18;;;;;;;5.72;2.97;;;27.60;49.40;;;;;;4960884;28;20038;-74
2023/05/27 06:49:45;;;;;;;10.25;2.72;;;27.60;54.30;;;;;;4955123;28;20079;-75
2023/05/27 06:52:11;;;;;;;4.55;2.35;;;27.60;55.90;;;;;;4962923;28;20039;-73
2023/05/27 06:54:56;;;;;;;5.10;2.30;;;27.60;49.00;;;;;;4959358;28;20121;-74
2023/05/27 06:57:41;;;;;;;4.85;2.20;;;27.70;45.80;;;;;;4960572;28;20058;-76
2023/05/27 07:00:14;;;;;;;4.60;2.15;;;27.50;43.60;;;;;;4958990;28;20602;-75
2023/05/27 07:02:50;;;;;;;4.68;2.17;;;27.60;44.80;;;;;;4956187;28;20431;-74
2023/05/27 07:05:16;;;;;;;3.55;2.17;;;27.60;44.70;;;;;;4959746;28;20588;-75
2023/05/27 07:07:42;;;;;;;4.70;2.22;;;27.60;44.70;;;;;;4934338;28;20042;-76
2023/05/27 07:10:08;;;;;;;5.82;2.53;;;27.60;44.20;;;;;;4970604;28;20045;-75
2023/05/27 07:12:35;;;;;;;6.40;2.28;;;27.60;44.20;;;;;;4962720;28;20041;-74
2023/05/27 07:15:22;;;;;;;8.15;2.72;;;27.60;44.00;;;;;;4965282;28;20035;-76
2023/05/27 07:17:49;;;;;;;4.85;2.15;;;27.60;45.00;;;;;;4966566;28;20049;-76
2023/05/27 07:20:15;;;;;;;10.15;2.38;;;27.50;44.90;;;;;;4966043;28;20418;-74
2023/05/27 07:22:42;;;;;;;9.35;2.33;;;27.50;43.10;;;;;;4961813;28;20035;-76
2023/05/27 07:25:09;;;;;;;4.35;2.13;;;27.40;42.40;;;;;;4940141;28;20035;-75
2023/05/27 07:27:36;;;;;;;4.38;2.20;;;27.30;44.00;;;;;;4965591;28;20042;-77
2023/05/27 07:30:03;;;;;;;6.00;2.42;;;27.30;42.30;;;;;;4966307;28;20533;-76
2023/05/27 07:32:44;;;;;;;4.78;2.00;;;27.20;43.00;;;;;;4962540;28;20050;-77
2023/05/27 07:35:09;;;;;;;3.45;1.80;;;27.20;44.10;;;;;;4961953;28;20031;-77
2023/05/27 07:37:36;;;;;;;4.20;1.90;;;27.20;43.50;;;;;;4963127;28;20035;-77
2023/05/27 07:40:02;;;;;;;4.03;1.88;;;27.20;43.60;;;;;;4960760;28;20047;-77
2023/05/27 07:42:32;;;;;;;5.80;2.20;;;27.10;43.90;;;;;;4970550;28;20057;-77
2023/05/27 07:44:58;;;;;;;7.68;2.50;;;27.10;42.80;;;;;;4954400;28;20096;-75
2023/05/27 07:47:24;;;;;;;3.30;2.20;;;27.00;42.20;;;;;;4950711;28;20042;-75
2023/05/27 07:49:51;;;;;;;2.42;1.73;;;27.00;43.30;;;;;;4951158;28;20601;-76
2023/05/27 07:52:35;;;;;;;3.55;2.20;;;27.00;43.10;;;;;;4958531;28;20030;-76
2023/05/27 07:55:08;;;;;;;7.43;2.22;;;27.00;43.40;;;;;;4957548;28;20031;-75
2023/05/27 07:57:34;;;;;;;4.82;2.20;;;26.90;42.50;;;;;;4959691;28;20507;-75
2023/05/27 08:00:00;;;;;;;4.22;2.15;;;26.80;42.60;;;;;;4957644;28;20098;-73
2023/05/27 08:02:43;;;;;;;4.20;1.92;;;26.70;42.60;;;;;;4959680;28;20113;-73
2023/05/27 08:05:09;;;;;;;3.15;2.08;;;26.60;40.80;;;;;;4958423;28;20042;-73
2023/05/27 08:07:55;;;;;;;3.67;1.98;;;26.50;42.20;;;;;;4958753;28;20041;-75
2023/05/27 08:10:41;;;;;;;3.05;2.00;;;26.50;42.00;;;;;;4959335;28;20629;-76
2023/05/27 08:13:36;;;;;;;3.63;2.10;;;26.50;42.00;;;;;;4936808;28;20043;-75
2023/05/27 08:16:17;;;;;;;6.32;2.45;;;26.40;42.20;;;;;;4957733;28;20041;-74
2023/05/27 08:18:47;;;;;;;5.40;2.10;;;26.40;37.50;;;;;;4967684;28;20499;-75
2023/05/27 08:21:23;;;;;;;4.07;1.80;;;26.30;39.80;;;;;;4953493;28;20520;-76
2023/05/27 08:23:58;;;;;;;;;;;26.20;40.60;;;;;;4963580;28;20035;-75
2023/05/27 08:26:25;;;;;;;7.00;2.10;;;26.20;40.90;;;;;;4959947;28;19918;-75
2023/05/27 08:29:01;;;;;;;4.28;2.00;;;26.10;40.20;;;;;;4954364;28;20031;-76
2023/05/27 08:31:53;;;;;;;3.25;1.92;;;26.10;39.80;;;;;;4918482;29;20084;-72
2023/05/27 08:34:20;;;;;;;4.63;1.88;;;26.00;39.40;;;;;;4923041;29;20570;-73
2023/05/27 08:36:46;;;;;;;4.32;1.95;;;26.00;37.40;;;;;;4923108;29;20036;-72
2023/05/27 08:39:12;;;;;;;3.92;1.92;;;25.90;40.30;;;;;;4908857;29;20119;-72
2023/05/27 08:41:48;;;;;;;6.22;2.05;;;25.90;40.60;;;;;;4911356;29;20056;-73
2023/05/27 08:44:15;;;;;;;5.22;2.38;;;25.80;39.60;;;;;;4923862;29;20043;-74
2023/05/27 08:46:41;;;;;;;5.70;2.17;;;25.80;40.40;;;;;;4917962;29;20115;-75
2023/05/27 08:49:07;;;;;;;6.80;2.38;;;25.80;40.20;;;;;;4893830;29;20042;-74
2023/05/27 08:51:38;;;;;;;4.63;2.45;;;25.80;42.30;;;;;;4906055;29;20058;-74
2023/05/27 08:54:05;;;;;;;5.30;2.45;;;25.80;43.00;;;;;;4910395;29;20032;-76
2023/05/27 08:56:34;;;;;;;4.05;2.42;;;25.80;42.90;;;;;;4895398;29;20043;-73
2023/05/27 08:59:01;;;;;;;6.78;2.40;;;25.70;41.00;;;;;;4925145;29;20518;-75
2023/05/27 09:01:28;;;;;;;5.25;2.42;;;25.70;41.90;;;;;;4910076;29;20134;-74
2023/05/27 09:03:57;;;;;;;5.18;2.25;;;25.50;42.40;;;;;;4910671;29;20035;-70
2023/05/27 09:06:23;;;;;;;3.88;2.67;;;25.60;42.50;;;;;;4909113;29;20060;-73
2023/05/27 09:08:49;;;;;;;5.45;2.33;;;25.50;43.50;;;;;;4941398;28;20046;-72
2023/05/27 09:11:22;;;;;;;4.65;2.40;;;25.50;43.10;;;;;;4962832;28;20714;-71
2023/05/27 09:13:48;;;;;;;4.10;2.40;;;25.40;43.00;;;;;;4963562;28;20035;-72
2023/05/27 09:16:14;;;;;;;5.85;2.40;;;25.30;43.60;;;;;;4962762;28;20035;-72
2023/05/27 09:18:41;;;;;;;4.53;2.40;;;25.20;43.60;;;;;;4962771;28;20051;-72
2023/05/27 09:21:07;;;;;;;6.13;2.50;;;25.20;42.70;;;;;;4961626;28;20038;-71
2023/05/27 09:23:40;;;;;;;4.53;2.47;;;25.00;43.00;;;;;;4966575;28;20038;-73
2023/05/27 09:26:10;;;;;;;5.93;2.45;;;25.10;44.20;;;;;;4972584;28;20081;-73
2023/05/27 09:28:37;;;;;;;5.75;2.33;;;25.10;44.10;;;;;;4964427;28;20085;-72
2023/05/27 09:31:06;;;;;;;5.88;2.60;;;25.10;43.30;;;;;;4963077;28;20058;-72
2023/05/27 09:33:39;;;;;;;4.43;2.30;;;25.10;44.50;;;;;;4963846;28;20106;-72
2023/05/27 09:36:08;;;;;;;4.55;2.65;;;25.10;44.60;;;;;;4965435;28;20062;-73
2023/05/27 09:38:35;;;;;;;5.80;3.13;;;25.10;45.20;;;;;;4959967;28;20046;-73
2023/05/27 09:41:03;;;;;;;9.68;2.83;;;25.10;44.20;;;;;;4960631;28;20138;-71
2023/05/27 09:43:29;;;;;;;8.35;3.22;;;25.00;45.60;;;;;;4960370;28;20512;-72
2023/05/27 09:46:12;;;;;;;5.53;2.88;;;25.00;45.10;;;;;;4962690;28;20034;-72
2023/05/27 09:48:38;;;;;;;4.75;2.80;;;25.00;45.90;;;;;;4962554;28;20039;-72
2023/05/27 09:51:05;;;;;;;5.75;2.83;;;25.00;46.00;;;;;;4962657;28;20077;-72
2023/05/27 09:53:33;;;;;;;4.82;2.63;;;25.00;45.20;;;;;;4963443;28;20090;-73
2023/05/27 09:55:59;;;;;;;6.38;2.90;;;24.90;44.20;;;;;;4963839;28;21474;-73
2023/05/27 09:58:25;;;;;;;3.13;2.60;;;24.80;42.80;;;;;;4962550;28;20035;-73
2023/05/27 10:00:52;;;;;;;3.20;2.67;;;24.70;44.00;;;;;;4964278;28;20487;-73
2023/05/27 10:03:23;;;;;;;5.95;3.05;;;24.60;44.40;;;;;;4964270;28;20113;-74
2023/05/27 10:05:51;;;;;;;8.32;3.00;;;24.60;45.80;;;;;;4962685;28;20023;-73
2023/05/27 10:08:18;;;;;;;4.85;2.85;;;24.60;45.30;;;;;;4961922;28;20042;-73
2023/05/27 10:10:46;;;;;;;4.25;2.80;;;24.60;46.50;;;;;;4960806;28;20039;-73
2023/05/27 10:13:16;;;;;;;5.40;2.80;;;24.60;44.70;;;;;;4965156;28;20039;-75
2023/05/27 10:15:48;;;;;;;7.18;2.88;;;24.60;44.80;;;;;;4961600;28;20036;-72
2023/05/27 10:18:27;;;;;;;4.78;2.83;;;24.60;45.50;;;;;;4962898;28;20042;-72
2023/05/27 10:20:53;;;;;;;2.70;2.50;;;24.60;45.50;;;;;;4961093;28;20045;-73
2023/05/27 10:23:25;;;;;;;4.03;2.75;;;24.60;45.90;;;;;;4963520;28;22102;-74
2023/05/27 10:26:05;;;;;;;4.78;2.78;;;24.60;44.60;;;;;;4963350;28;20062;-74
2023/05/27 10:28:39;;;;;;;3.30;2.85;;;24.60;45.30;;;;;;4949321;28;20042;-73
2023/05/27 10:31:05;;;;;;;4.43;2.75;;;24.50;43.60;;;;;;4962225;28;20100;-74
2023/05/27 10:33:33;;;;;;;5.78;2.58;;;24.40;44.00;;;;;;4963405;28;20039;-73
2023/05/27 10:36:15;;;;;;;2.67;2.45;;;24.40;44.40;;;;;;4962836;28;20096;-74
2023/05/27 10:38:42;;;;;;;4.00;2.80;;;24.40;45.40;;;;;;4961749;28;20538;-73
2023/05/27 10:41:09;;;;;;;6.60;2.55;;;24.40;45.70;;;;;;4954892;28;20035;-74
2023/05/27 10:43:36;;;;;;;3.95;2.50;;;24.30;44.60;;;;;;4962424;28;20134;-74
2023/05/27 10:46:11;;;;;;;5.60;2.80;;;24.30;45.50;;;;;;4963009;28;20129;-73
2023/05/27 10:48:39;;;;;;;4.88;2.78;;;24.30;45.40;;;;;;4962179;28;20063;-74
2023/05/27 10:51:09;;;;;;;2.63;2.10;;;24.30;46.00;;;;;;4962541;28;20457;-74
2023/05/27 10:53:39;;;;;;;3.83;2.58;;;24.30;45.40;;;;;;4961824;28;20058;-74
2023/05/27 10:56:05;;;;;;;4.18;2.50;;;24.20;45.20;;;;;;4961591;28;20034;-74
2023/05/27 10:58:38;;;;;;;4.72;2.40;;;24.20;44.30;;;;;;4959378;28;20195;-72
2023/05/27 11:01:13;;;;;;;2.55;2.35;;;24.20;45.20;;;;;;4960478;28;20042;-72
2023/05/27 11:03:44;;;;;;;4.47;2.60;;;24.20;45.50;;;;;;4959405;28;20125;-73
2023/05/27 11:06:11;;;;;;;3.50;2.63;;;24.20;45.70;;;;;;4960974;28;20106;-70
2023/05/27 11:08:40;;;;;;;5.07;2.72;;;24.20;44.20;;;;;;4961026;28;20126;-73
2023/05/27 11:11:10;;;;;;;4.03;2.72;;;24.10;44.70;;;;;;4960636;28;20030;-72
2023/05/27 11:13:42;;;;;;;4.38;2.55;;;24.10;44.30;;;;;;4959994;28;20129;-73
2023/05/27 11:16:08;;;;;;;3.47;2.63;;;24.10;45.40;;;;;;4962101;28;20502;-73
2023/05/27 11:18:46;;;;;;;4.57;2.75;;;24.10;45.40;;;;;;4961738;28;20061;-73
2023/05/27 11:21:14;;;;;;;4.82;2.50;;;24.10;43.60;;;;;;4961858;28;20537;-73
2023/05/27 11:23:43;;;;;;;5.20;2.25;;;24.10;44.50;;;;;;4960240;28;20532;-71
2023/05/27 11:26:21;;;;;;;3.58;2.30;;;24.00;45.10;;;;;;4960971;28;20077;-73
2023/05/27 11:28:50;;;;;;;2.95;2.08;;;24.10;45.50;;;;;;4959603;28;20085;-74
2023/05/27 11:31:17;;;;;;;3.92;2.10;;;24.20;45.50;;;;;;4959317;28;20070;-73
2023/05/27 11:33:44;;;;;;;2.70;2.22;;;24.20;44.80;;;;;;4955767;28;20417;-73
2023/05/27 11:36:15;;;;;;;2.40;2.20;;;24.20;44.10;;;;;;4959722;28;20059;-73
2023/05/27 11:38:50;;;;;;;4.32;2.50;;;24.20;44.50;;;;;;4959042;28;20488;-73
2023/05/27 11:41:17;;;;;;;3.47;2.53;;;24.10;43.60;;;;;;4959670;28;20502;-73
2023/05/27 11:44:05;;;;;;;5.65;2.63;;;24.10;44.10;;;;;;4965970;28;20039;-73
2023/05/27 11:46:39;;;;;;;6.03;2.67;;;24.10;43.10;;;;;;4957990;28;20094;-73
2023/05/27 11:49:06;;;;;;;3.30;2.40;;;24.10;43.60;;;;;;4957098;28;20046;-74
2023/05/27 11:51:36;;;;;;;4.22;2.28;;;24.00;42.90;;;;;;4958151;28;20460;-73
2023/05/27 11:54:02;;;;;;;4.57;2.55;;;24.00;43.80;;;;;;4957655;28;20386;-73
2023/05/27 11:56:29;;;;;;;3.72;2.22;;;24.00;42.90;;;;;;4959332;28;20035;-71
2023/05/27 11:58:56;;;;;;;2.70;2.38;;;24.00;43.70;;;;;;4959285;28;20035;-74
2023/05/27 12:01:22;;;;;;;2.33;2.00;;;23.90;43.20;;;;;;4958755;28;20645;-73
2023/05/27 12:03:48;;;;;;;2.58;1.90;;;23.90;42.90;;;;;;4959333;28;20046;-73
2023/05/27 12:06:14;;;;;;;3.42;2.17;;;23.90;43.10;;;;;;4960409;28;20050;-73
2023/05/27 12:08:43;;;;;;;2.83;1.83;;;23.90;42.70;;;;;;4961808;28;20035;-75
2023/05/27 12:11:09;;;;;;;2.50;2.10;;;23.90;43.30;;;;;;4964069;28;20039;-73
2023/05/27 12:13:35;;;;;;;3.53;2.17;;;23.90;42.10;;;;;;4962610;28;20441;-73
2023/05/27 12:16:03;;;;;;;3.80;2.38;;;23.80;42.20;;;;;;4964108;28;20712;-74
2023/05/27 12:18:29;;;;;;;2.95;1.95;;;23.80;43.20;;;;;;4964490;28;20041;-72
2023/05/27 12:20:55;;;;;;;4.65;2.35;;;23.90;44.00;;;;;;4963396;28;20035;-73
2023/05/27 12:23:22;;;;;;;3.42;2.38;;;23.90;43.40;;;;;;4960834;28;20046;-72
2023/05/27 12:25:48;;;;;;;3.10;2.08;;;23.90;42.10;;;;;;4964171;28;20581;-72
2023/05/27 12:28:14;;;;;;;3.17;2.00;;;23.70;40.00;;;;;;4962949;28;20035;-73
2023/05/27 12:30:39;;;;;;;3.33;1.95;;;23.60;40.30;;;;;;4969501;28;20098;-72
2023/05/27 12:33:06;;;;;;;4.70;1.73;;;23.60;40.90;;;;;;4962273;28;20588;-73
2023/05/27 12:35:33;;;;;;;4.78;2.10;;;23.70;42.20;;;;;;4962011;28;20047;-73
2023/05/27 12:38:00;;;;;;;3.05;1.80;;;23.70;41.30;;;;;;4961383;28;20041;-73
2023/05/27 12:40:26;;;;;;;3.25;2.22;;;23.70;42.10;;;;;;4962859;28;20035;-73
2023/05/27 12:42:53;;;;;;;4.07;1.92;;;23.60;40.60;;;;;;4962567;28;20083;-73
2023/05/27 12:45:23;;;;;;;2.90;1.98;;;23.60;40.60;;;;;;4963625;28;20450;-73
2023/05/27 12:47:49;;;;;;;3.85;1.95;;;23.60;40.40;;;;;;4962998;28;20027;-74
2023/05/27 12:50:16;;;;;;;3.25;2.00;;;23.40;40.70;;;;;;4962388;28;20043;-73
2023/05/27 12:52:46;;;;;;;4.95;1.90;;;23.40;40.20;;;;;;4962738;28;20042;-71
2023/05/27 12:55:18;;;;;;;4.93;2.10;;;23.40;40.60;;;;;;4960935;28;20062;-71
2023/05/27 12:57:49;;;;;;;4.40;1.80;;;23.40;40.90;;;;;;4960645;28;20406;-72